sensor_id;sensor_type;location;lat;lon;timestamp;P1;durP1;ratioP1;P2;durP2;ratioP2
51296;SDS011;37380;45.186;9.792;2024-01-25T00:00:01;157.20;;;128.45;;
51296;SDS011;37380;45.186;9.792;2024-01-25T00:02:30;157.68;;;129.88;;
51296;SDS011;37380;45.186;9.792;2024-01-25T00:04:57;180.23;;;133.73;;
51296;SDS011;37380;45.186;9.792;2024-01-25T00:07:24;166.57;;;130.38;;
51296;SDS011;37380;45.186;9.792;2024-01-25T00:09:51;159.07;;;128.68;;
51296;SDS011;37380;45.186;9.792;2024-01-25T00:12:18;155.05;;;128.70;;
51296;SDS011;37380;45.186;9.792;2024-01-25T00:14:45;159.82;;;125.15;;
51296;SDS011;37380;45.186;9.792;2024-01-25T00:17:16;144.00;;;121.85;;
51296;SDS011;37380;45.186;9.792;2024-01-25T00:19:43;158.45;;;122.30;;
51296;SDS011;37380;45.186;9.792;2024-01-25T00:22:10;154.85;;;126.90;;
51296;SDS011;37380;45.186;9.792;2024-01-25T00:24:37;151.02;;;123.25;;
51296;SDS011;37380;45.186;9.792;2024-01-25T00:27:04;147.38;;;121.50;;
51296;SDS011;37380;45.186;9.792;2024-01-25T00:29:31;160.77;;;131.35;;
51296;SDS011;37380;45.186;9.792;2024-01-25T00:32:01;145.88;;;120.78;;
51296;SDS011;37380;45.186;9.792;2024-01-25T00:34:29;146.23;;;121.18;;
51296;SDS011;37380;45.186;9.792;2024-01-25T00:36:57;146.27;;;118.63;;
51296;SDS011;37380;45.186;9.792;2024-01-25T00:39:24;159.75;;;126.40;;
51296;SDS011;37380;45.186;9.792;2024-01-25T00:41:52;150.68;;;123.45;;
51296;SDS011;37380;45.186;9.792;2024-01-25T00:44:24;152.27;;;124.88;;
51296;SDS011;37380;45.186;9.792;2024-01-25T00:46:52;153.07;;;127.15;;
51296;SDS011;37380;45.186;9.792;2024-01-25T00:49:20;154.57;;;125.72;;
51296;SDS011;37380;45.186;9.792;2024-01-25T00:51:47;141.55;;;119.40;;
51296;SDS011;37380;45.186;9.792;2024-01-25T00:54:16;149.57;;;121.78;;
51296;SDS011;37380;45.186;9.792;2024-01-25T00:56:44;150.32;;;123.15;;
51296;SDS011;37380;45.186;9.792;2024-01-25T00:59:11;150.05;;;121.63;;
51296;SDS011;37380;45.186;9.792;2024-01-25T01:01:38;149.30;;;118.40;;
51296;SDS011;37380;45.186;9.792;2024-01-25T01:04:08;148.73;;;118.40;;
51296;SDS011;37380;45.186;9.792;2024-01-25T01:06:36;138.02;;;117.03;;
51296;SDS011;37380;45.186;9.792;2024-01-25T01:09:03;136.98;;;114.72;;
51296;SDS011;37380;45.186;9.792;2024-01-25T01:11:30;153.80;;;116.68;;
51296;SDS011;37380;45.186;9.792;2024-01-25T01:13:57;139.25;;;117.00;;
51296;SDS011;37380;45.186;9.792;2024-01-25T01:16:24;142.35;;;115.00;;
51296;SDS011;37380;45.186;9.792;2024-01-25T01:18:51;138.98;;;117.10;;
51296;SDS011;37380;45.186;9.792;2024-01-25T01:21:19;148.43;;;116.38;;
51296;SDS011;37380;45.186;9.792;2024-01-25T01:23:47;154.82;;;121.65;;
51296;SDS011;37380;45.186;9.792;2024-01-25T01:26:15;139.77;;;116.85;;
51296;SDS011;37380;45.186;9.792;2024-01-25T01:28:42;165.63;;;125.35;;
51296;SDS011;37380;45.186;9.792;2024-01-25T01:31:10;147.73;;;123.88;;
51296;SDS011;37380;45.186;9.792;2024-01-25T01:33:37;153.45;;;127.28;;
51296;SDS011;37380;45.186;9.792;2024-01-25T01:36:05;140.32;;;117.63;;
51296;SDS011;37380;45.186;9.792;2024-01-25T01:38:32;148.32;;;124.68;;
51296;SDS011;37380;45.186;9.792;2024-01-25T01:40:59;136.45;;;111.53;;
51296;SDS011;37380;45.186;9.792;2024-01-25T01:43:26;143.30;;;119.07;;
51296;SDS011;37380;45.186;9.792;2024-01-25T01:45:53;141.02;;;116.53;;
51296;SDS011;37380;45.186;9.792;2024-01-25T01:48:28;146.10;;;115.65;;
51296;SDS011;37380;45.186;9.792;2024-01-25T01:50:55;171.13;;;127.63;;
51296;SDS011;37380;45.186;9.792;2024-01-25T01:53:23;153.13;;;126.38;;
51296;SDS011;37380;45.186;9.792;2024-01-25T01:55:51;161.50;;;129.88;;
51296;SDS011;37380;45.186;9.792;2024-01-25T01:58:18;157.88;;;126.30;;
51296;SDS011;37380;45.186;9.792;2024-01-25T02:00:48;154.88;;;122.97;;
51296;SDS011;37380;45.186;9.792;2024-01-25T02:03:17;153.80;;;123.00;;
51296;SDS011;37380;45.186;9.792;2024-01-25T02:05:44;169.23;;;130.00;;
51296;SDS011;37380;45.186;9.792;2024-01-25T02:08:11;159.15;;;130.45;;
51296;SDS011;37380;45.186;9.792;2024-01-25T02:10:39;158.20;;;126.65;;
51296;SDS011;37380;45.186;9.792;2024-01-25T02:13:08;168.48;;;130.70;;
51296;SDS011;37380;45.186;9.792;2024-01-25T02:15:35;160.25;;;119.80;;
51296;SDS011;37380;45.186;9.792;2024-01-25T02:18:02;146.98;;;120.13;;
51296;SDS011;37380;45.186;9.792;2024-01-25T02:20:30;146.05;;;122.65;;
51296;SDS011;37380;45.186;9.792;2024-01-25T02:22:57;141.52;;;117.40;;
51296;SDS011;37380;45.186;9.792;2024-01-25T02:25:24;150.82;;;117.32;;
51296;SDS011;37380;45.186;9.792;2024-01-25T02:27:51;149.65;;;121.25;;
51296;SDS011;37380;45.186;9.792;2024-01-25T02:30:18;143.73;;;116.38;;
51296;SDS011;37380;45.186;9.792;2024-01-25T02:32:46;144.05;;;114.82;;
51296;SDS011;37380;45.186;9.792;2024-01-25T02:35:13;138.38;;;116.88;;
51296;SDS011;37380;45.186;9.792;2024-01-25T02:37:41;148.05;;;119.60;;
51296;SDS011;37380;45.186;9.792;2024-01-25T02:40:10;139.13;;;119.10;;
51296;SDS011;37380;45.186;9.792;2024-01-25T02:42:37;148.48;;;110.72;;
51296;SDS011;37380;45.186;9.792;2024-01-25T02:45:05;137.25;;;112.97;;
51296;SDS011;37380;45.186;9.792;2024-01-25T02:47:32;143.43;;;114.55;;
51296;SDS011;37380;45.186;9.792;2024-01-25T02:49:59;147.73;;;118.80;;
51296;SDS011;37380;45.186;9.792;2024-01-25T02:52:26;156.05;;;122.00;;
51296;SDS011;37380;45.186;9.792;2024-01-25T02:54:53;151.15;;;123.68;;
51296;SDS011;37380;45.186;9.792;2024-01-25T02:57:20;146.23;;;118.95;;
51296;SDS011;37380;45.186;9.792;2024-01-25T02:59:47;162.40;;;128.85;;
51296;SDS011;37380;45.186;9.792;2024-01-25T03:02:14;153.75;;;125.93;;
51296;SDS011;37380;45.186;9.792;2024-01-25T03:04:43;164.02;;;127.05;;
51296;SDS011;37380;45.186;9.792;2024-01-25T03:07:11;153.60;;;123.40;;
51296;SDS011;37380;45.186;9.792;2024-01-25T03:09:40;144.50;;;120.32;;
51296;SDS011;37380;45.186;9.792;2024-01-25T03:12:07;151.05;;;118.47;;
51296;SDS011;37380;45.186;9.792;2024-01-25T03:14:34;144.07;;;119.47;;
51296;SDS011;37380;45.186;9.792;2024-01-25T03:17:02;141.18;;;118.68;;
51296;SDS011;37380;45.186;9.792;2024-01-25T03:19:29;134.27;;;114.85;;
51296;SDS011;37380;45.186;9.792;2024-01-25T03:21:56;147.40;;;115.80;;
51296;SDS011;37380;45.186;9.792;2024-01-25T03:24:23;134.80;;;114.88;;
51296;SDS011;37380;45.186;9.792;2024-01-25T03:26:52;140.52;;;113.53;;
51296;SDS011;37380;45.186;9.792;2024-01-25T03:29:19;137.45;;;110.53;;
51296;SDS011;37380;45.186;9.792;2024-01-25T03:31:46;134.75;;;110.82;;
51296;SDS011;37380;45.186;9.792;2024-01-25T03:34:13;128.77;;;105.55;;
51296;SDS011;37380;45.186;9.792;2024-01-25T03:36:41;129.75;;;109.93;;
51296;SDS011;37380;45.186;9.792;2024-01-25T03:39:08;132.77;;;108.20;;
51296;SDS011;37380;45.186;9.792;2024-01-25T03:41:35;129.82;;;107.90;;
51296;SDS011;37380;45.186;9.792;2024-01-25T03:44:02;136.95;;;106.70;;
51296;SDS011;37380;45.186;9.792;2024-01-25T03:46:29;134.90;;;110.43;;
51296;SDS011;37380;45.186;9.792;2024-01-25T03:48:58;141.65;;;114.95;;
51296;SDS011;37380;45.186;9.792;2024-01-25T03:51:26;139.10;;;116.22;;
51296;SDS011;37380;45.186;9.792;2024-01-25T03:53:53;152.05;;;120.60;;
51296;SDS011;37380;45.186;9.792;2024-01-25T03:56:21;145.40;;;119.38;;
51296;SDS011;37380;45.186;9.792;2024-01-25T03:58:49;140.05;;;117.13;;
51296;SDS011;37380;45.186;9.792;2024-01-25T04:01:16;143.18;;;115.75;;
51296;SDS011;37380;45.186;9.792;2024-01-25T04:03:44;144.77;;;117.30;;
51296;SDS011;37380;45.186;9.792;2024-01-25T04:06:11;143.38;;;119.85;;
51296;SDS011;37380;45.186;9.792;2024-01-25T04:08:38;150.27;;;119.88;;
51296;SDS011;37380;45.186;9.792;2024-01-25T04:11:05;151.02;;;122.82;;
51296;SDS011;37380;45.186;9.792;2024-01-25T04:13:32;160.70;;;124.30;;
51296;SDS011;37380;45.186;9.792;2024-01-25T04:16:00;144.35;;;122.18;;
51296;SDS011;37380;45.186;9.792;2024-01-25T04:18:27;143.18;;;119.57;;
51296;SDS011;37380;45.186;9.792;2024-01-25T04:20:54;149.23;;;118.93;;
51296;SDS011;37380;45.186;9.792;2024-01-25T04:23:20;149.10;;;120.53;;
51296;SDS011;37380;45.186;9.792;2024-01-25T04:25:48;158.23;;;120.55;;
51296;SDS011;37380;45.186;9.792;2024-01-25T04:28:15;159.60;;;124.18;;
51296;SDS011;37380;45.186;9.792;2024-01-25T04:30:42;150.80;;;121.53;;
51296;SDS011;37380;45.186;9.792;2024-01-25T04:33:10;154.55;;;119.38;;
51296;SDS011;37380;45.186;9.792;2024-01-25T04:35:37;158.35;;;121.03;;
51296;SDS011;37380;45.186;9.792;2024-01-25T04:38:04;158.90;;;125.25;;
51296;SDS011;37380;45.186;9.792;2024-01-25T04:40:31;159.57;;;121.22;;
51296;SDS011;37380;45.186;9.792;2024-01-25T04:42:58;180.82;;;125.63;;
51296;SDS011;37380;45.186;9.792;2024-01-25T04:45:25;153.18;;;122.93;;
51296;SDS011;37380;45.186;9.792;2024-01-25T04:47:52;140.68;;;117.63;;
51296;SDS011;37380;45.186;9.792;2024-01-25T04:50:19;152.15;;;121.53;;
51296;SDS011;37380;45.186;9.792;2024-01-25T04:52:47;148.32;;;118.15;;
51296;SDS011;37380;45.186;9.792;2024-01-25T04:55:14;144.45;;;119.90;;
51296;SDS011;37380;45.186;9.792;2024-01-25T04:57:41;146.52;;;119.97;;
51296;SDS011;37380;45.186;9.792;2024-01-25T05:00:08;142.23;;;119.82;;
51296;SDS011;37380;45.186;9.792;2024-01-25T05:02:36;145.30;;;121.38;;
51296;SDS011;37380;45.186;9.792;2024-01-25T05:05:03;162.27;;;128.75;;
51296;SDS011;37380;45.186;9.792;2024-01-25T05:07:30;151.35;;;124.05;;
51296;SDS011;37380;45.186;9.792;2024-01-25T05:09:58;147.05;;;121.45;;
51296;SDS011;37380;45.186;9.792;2024-01-25T05:12:25;147.60;;;121.63;;
51296;SDS011;37380;45.186;9.792;2024-01-25T05:14:52;134.50;;;116.60;;
51296;SDS011;37380;45.186;9.792;2024-01-25T05:17:19;141.30;;;120.45;;
51296;SDS011;37380;45.186;9.792;2024-01-25T05:19:46;143.02;;;121.55;;
51296;SDS011;37380;45.186;9.792;2024-01-25T05:22:13;145.98;;;119.03;;
51296;SDS011;37380;45.186;9.792;2024-01-25T05:24:41;147.27;;;117.63;;
51296;SDS011;37380;45.186;9.792;2024-01-25T05:27:08;141.57;;;117.85;;
51296;SDS011;37380;45.186;9.792;2024-01-25T05:29:35;179.63;;;147.93;;
51296;SDS011;37380;45.186;9.792;2024-01-25T05:32:02;153.98;;;126.35;;
51296;SDS011;37380;45.186;9.792;2024-01-25T05:34:29;152.30;;;126.03;;
51296;SDS011;37380;45.186;9.792;2024-01-25T05:36:56;143.23;;;123.60;;
51296;SDS011;37380;45.186;9.792;2024-01-25T05:39:23;138.30;;;118.65;;
51296;SDS011;37380;45.186;9.792;2024-01-25T05:41:50;142.57;;;122.57;;
51296;SDS011;37380;45.186;9.792;2024-01-25T05:44:17;156.10;;;126.13;;
51296;SDS011;37380;45.186;9.792;2024-01-25T05:46:44;181.38;;;126.47;;
51296;SDS011;37380;45.186;9.792;2024-01-25T05:49:12;222.55;;;128.23;;
51296;SDS011;37380;45.186;9.792;2024-01-25T05:51:39;187.77;;;123.00;;
51296;SDS011;37380;45.186;9.792;2024-01-25T05:54:06;159.23;;;117.65;;
51296;SDS011;37380;45.186;9.792;2024-01-25T05:56:33;169.73;;;117.85;;
51296;SDS011;37380;45.186;9.792;2024-01-25T05:59:00;185.13;;;112.47;;
51296;SDS011;37380;45.186;9.792;2024-01-25T06:01:27;211.90;;;108.03;;
51296;SDS011;37380;45.186;9.792;2024-01-25T06:03:55;139.98;;;108.20;;
51296;SDS011;37380;45.186;9.792;2024-01-25T06:06:22;168.63;;;108.72;;
51296;SDS011;37380;45.186;9.792;2024-01-25T06:08:49;139.30;;;114.45;;
51296;SDS011;37380;45.186;9.792;2024-01-25T06:11:28;136.55;;;109.90;;
51296;SDS011;37380;45.186;9.792;2024-01-25T06:13:55;139.30;;;116.85;;
51296;SDS011;37380;45.186;9.792;2024-01-25T06:16:22;140.70;;;116.97;;
51296;SDS011;37380;45.186;9.792;2024-01-25T06:18:50;140.70;;;121.90;;
51296;SDS011;37380;45.186;9.792;2024-01-25T06:21:17;150.82;;;121.65;;
51296;SDS011;37380;45.186;9.792;2024-01-25T06:23:44;142.20;;;119.68;;
51296;SDS011;37380;45.186;9.792;2024-01-25T06:26:12;145.10;;;123.65;;
51296;SDS011;37380;45.186;9.792;2024-01-25T06:28:39;139.57;;;117.18;;
51296;SDS011;37380;45.186;9.792;2024-01-25T06:31:08;144.63;;;115.15;;
51296;SDS011;37380;45.186;9.792;2024-01-25T06:33:35;133.13;;;113.88;;
51296;SDS011;37380;45.186;9.792;2024-01-25T06:36:02;152.73;;;124.40;;
51296;SDS011;37380;45.186;9.792;2024-01-25T06:38:29;152.05;;;125.75;;
51296;SDS011;37380;45.186;9.792;2024-01-25T06:40:56;148.25;;;122.15;;
51296;SDS011;37380;45.186;9.792;2024-01-25T06:43:23;145.50;;;121.00;;
51296;SDS011;37380;45.186;9.792;2024-01-25T06:45:50;134.93;;;113.68;;
51296;SDS011;37380;45.186;9.792;2024-01-25T06:48:17;136.68;;;113.88;;
51296;SDS011;37380;45.186;9.792;2024-01-25T06:50:44;126.22;;;110.15;;
51296;SDS011;37380;45.186;9.792;2024-01-25T06:53:12;123.28;;;109.22;;
51296;SDS011;37380;45.186;9.792;2024-01-25T06:55:40;132.75;;;110.60;;
51296;SDS011;37380;45.186;9.792;2024-01-25T06:58:07;125.07;;;106.45;;
51296;SDS011;37380;45.186;9.792;2024-01-25T07:00:34;119.32;;;104.47;;
51296;SDS011;37380;45.186;9.792;2024-01-25T07:03:05;124.57;;;108.40;;
51296;SDS011;37380;45.186;9.792;2024-01-25T07:05:33;127.03;;;107.47;;
51296;SDS011;37380;45.186;9.792;2024-01-25T07:08:02;127.18;;;106.78;;
51296;SDS011;37380;45.186;9.792;2024-01-25T07:10:30;119.68;;;105.70;;
51296;SDS011;37380;45.186;9.792;2024-01-25T07:13:00;142.85;;;114.82;;
51296;SDS011;37380;45.186;9.792;2024-01-25T07:15:27;198.10;;;113.18;;
51296;SDS011;37380;45.186;9.792;2024-01-25T07:17:56;398.50;;;122.18;;
51296;SDS011;37380;45.186;9.792;2024-01-25T07:20:23;411.85;;;128.40;;
51296;SDS011;37380;45.186;9.792;2024-01-25T07:22:53;273.17;;;126.20;;
51296;SDS011;37380;45.186;9.792;2024-01-25T07:25:30;464.38;;;135.13;;
51296;SDS011;37380;45.186;9.792;2024-01-25T07:28:10;380.80;;;142.35;;
51296;SDS011;37380;45.186;9.792;2024-01-25T07:30:42;309.10;;;140.43;;
51296;SDS011;37380;45.186;9.792;2024-01-25T07:33:10;409.92;;;146.80;;
51296;SDS011;37380;45.186;9.792;2024-01-25T07:35:38;348.60;;;149.68;;
51296;SDS011;37380;45.186;9.792;2024-01-25T07:38:12;428.38;;;150.05;;
51296;SDS011;37380;45.186;9.792;2024-01-25T07:40:39;263.30;;;138.57;;
51296;SDS011;37380;45.186;9.792;2024-01-25T07:43:09;289.50;;;137.20;;
51296;SDS011;37380;45.186;9.792;2024-01-25T07:45:38;254.13;;;145.30;;
51296;SDS011;37380;45.186;9.792;2024-01-25T07:48:10;305.00;;;144.60;;
51296;SDS011;37380;45.186;9.792;2024-01-25T07:50:49;187.38;;;136.27;;
51296;SDS011;37380;45.186;9.792;2024-01-25T07:53:17;201.75;;;141.38;;
51296;SDS011;37380;45.186;9.792;2024-01-25T07:55:49;170.23;;;134.20;;
51296;SDS011;37380;45.186;9.792;2024-01-25T07:58:18;163.18;;;133.63;;
51296;SDS011;37380;45.186;9.792;2024-01-25T08:00:47;163.10;;;127.07;;
51296;SDS011;37380;45.186;9.792;2024-01-25T08:03:29;150.00;;;123.55;;
51296;SDS011;37380;45.186;9.792;2024-01-25T08:05:58;140.27;;;116.55;;
51296;SDS011;37380;45.186;9.792;2024-01-25T08:08:34;143.35;;;115.38;;
51296;SDS011;37380;45.186;9.792;2024-01-25T08:11:04;142.02;;;114.90;;
51296;SDS011;37380;45.186;9.792;2024-01-25T08:13:35;158.77;;;125.68;;
51296;SDS011;37380;45.186;9.792;2024-01-25T08:16:09;239.32;;;147.98;;
51296;SDS011;37380;45.186;9.792;2024-01-25T08:18:48;190.77;;;147.30;;
51296;SDS011;37380;45.186;9.792;2024-01-25T08:21:19;199.43;;;144.32;;
51296;SDS011;37380;45.186;9.792;2024-01-25T08:23:55;183.77;;;142.30;;
51296;SDS011;37380;45.186;9.792;2024-01-25T08:26:25;159.50;;;131.48;;
51296;SDS011;37380;45.186;9.792;2024-01-25T08:28:55;174.68;;;131.38;;
51296;SDS011;37380;45.186;9.792;2024-01-25T08:31:26;242.15;;;173.38;;
51296;SDS011;37380;45.186;9.792;2024-01-25T08:34:01;225.18;;;156.77;;
51296;SDS011;37380;45.186;9.792;2024-01-25T08:36:30;245.93;;;167.55;;
51296;SDS011;37380;45.186;9.792;2024-01-25T08:38:57;175.73;;;134.88;;
51296;SDS011;37380;45.186;9.792;2024-01-25T08:41:25;169.68;;;123.28;;
51296;SDS011;37380;45.186;9.792;2024-01-25T08:43:51;176.77;;;131.55;;
51296;SDS011;37380;45.186;9.792;2024-01-25T08:46:20;204.52;;;152.57;;
51296;SDS011;37380;45.186;9.792;2024-01-25T08:48:47;173.80;;;135.70;;
51296;SDS011;37380;45.186;9.792;2024-01-25T08:51:14;165.45;;;132.20;;
51296;SDS011;37380;45.186;9.792;2024-01-25T08:53:44;157.30;;;129.70;;
51296;SDS011;37380;45.186;9.792;2024-01-25T08:56:11;164.70;;;133.50;;
51296;SDS011;37380;45.186;9.792;2024-01-25T08:58:40;160.95;;;128.63;;
51296;SDS011;37380;45.186;9.792;2024-01-25T09:01:12;166.15;;;133.38;;
51296;SDS011;37380;45.186;9.792;2024-01-25T09:03:42;167.20;;;130.18;;
51296;SDS011;37380;45.186;9.792;2024-01-25T09:06:10;163.70;;;130.35;;
51296;SDS011;37380;45.186;9.792;2024-01-25T09:08:38;186.32;;;143.32;;
51296;SDS011;37380;45.186;9.792;2024-01-25T09:11:05;166.18;;;131.18;;
51296;SDS011;37380;45.186;9.792;2024-01-25T09:13:32;158.95;;;126.07;;
51296;SDS011;37380;45.186;9.792;2024-01-25T09:16:12;144.75;;;115.53;;
51296;SDS011;37380;45.186;9.792;2024-01-25T09:18:39;154.10;;;115.90;;
51296;SDS011;37380;45.186;9.792;2024-01-25T09:21:07;152.07;;;115.85;;
51296;SDS011;37380;45.186;9.792;2024-01-25T09:23:34;138.45;;;106.47;;
51296;SDS011;37380;45.186;9.792;2024-01-25T09:26:01;146.30;;;118.93;;
51296;SDS011;37380;45.186;9.792;2024-01-25T09:28:28;155.27;;;116.82;;
51296;SDS011;37380;45.186;9.792;2024-01-25T09:30:55;146.55;;;112.88;;
51296;SDS011;37380;45.186;9.792;2024-01-25T09:33:24;150.55;;;118.18;;
51296;SDS011;37380;45.186;9.792;2024-01-25T09:35:51;158.07;;;118.10;;
51296;SDS011;37380;45.186;9.792;2024-01-25T09:38:19;158.85;;;112.80;;
51296;SDS011;37380;45.186;9.792;2024-01-25T09:40:46;154.30;;;116.97;;
51296;SDS011;37380;45.186;9.792;2024-01-25T09:43:13;150.80;;;114.93;;
51296;SDS011;37380;45.186;9.792;2024-01-25T09:45:41;149.75;;;113.22;;
51296;SDS011;37380;45.186;9.792;2024-01-25T09:48:08;150.02;;;115.55;;
51296;SDS011;37380;45.186;9.792;2024-01-25T09:50:38;162.52;;;118.63;;
51296;SDS011;37380;45.186;9.792;2024-01-25T09:53:06;151.10;;;121.57;;
51296;SDS011;37380;45.186;9.792;2024-01-25T09:55:35;146.40;;;119.53;;
51296;SDS011;37380;45.186;9.792;2024-01-25T09:58:07;168.45;;;121.10;;
51296;SDS011;37380;45.186;9.792;2024-01-25T10:00:35;157.02;;;107.95;;
51296;SDS011;37380;45.186;9.792;2024-01-25T10:03:02;182.65;;;128.13;;
51296;SDS011;37380;45.186;9.792;2024-01-25T10:05:30;151.93;;;110.25;;
51296;SDS011;37380;45.186;9.792;2024-01-25T10:07:57;144.02;;;101.55;;
51296;SDS011;37380;45.186;9.792;2024-01-25T10:10:31;160.05;;;122.88;;
51296;SDS011;37380;45.186;9.792;2024-01-25T10:12:59;163.98;;;120.28;;
51296;SDS011;37380;45.186;9.792;2024-01-25T10:15:26;169.82;;;123.78;;
51296;SDS011;37380;45.186;9.792;2024-01-25T10:17:53;161.10;;;121.90;;
51296;SDS011;37380;45.186;9.792;2024-01-25T10:20:44;153.63;;;117.60;;
51296;SDS011;37380;45.186;9.792;2024-01-25T10:23:12;150.38;;;120.07;;
51296;SDS011;37380;45.186;9.792;2024-01-25T10:25:39;147.55;;;113.25;;
51296;SDS011;37380;45.186;9.792;2024-01-25T10:28:07;151.52;;;111.25;;
51296;SDS011;37380;45.186;9.792;2024-01-25T10:30:35;135.95;;;98.10;;
51296;SDS011;37380;45.186;9.792;2024-01-25T10:33:03;159.73;;;117.07;;
51296;SDS011;37380;45.186;9.792;2024-01-25T10:35:34;156.93;;;114.32;;
51296;SDS011;37380;45.186;9.792;2024-01-25T10:38:04;143.07;;;110.63;;
51296;SDS011;37380;45.186;9.792;2024-01-25T10:40:32;204.43;;;150.75;;
51296;SDS011;37380;45.186;9.792;2024-01-25T10:42:59;154.85;;;109.40;;
51296;SDS011;37380;45.186;9.792;2024-01-25T10:45:29;182.32;;;132.98;;
51296;SDS011;37380;45.186;9.792;2024-01-25T10:47:56;126.80;;;101.97;;
51296;SDS011;37380;45.186;9.792;2024-01-25T10:50:24;121.35;;;82.40;;
51296;SDS011;37380;45.186;9.792;2024-01-25T10:52:52;135.13;;;101.97;;
51296;SDS011;37380;45.186;9.792;2024-01-25T10:55:20;208.00;;;148.70;;
51296;SDS011;37380;45.186;9.792;2024-01-25T10:57:48;151.98;;;117.30;;
51296;SDS011;37380;45.186;9.792;2024-01-25T11:00:15;153.20;;;113.70;;
51296;SDS011;37380;45.186;9.792;2024-01-25T11:02:46;147.23;;;109.35;;
51296;SDS011;37380;45.186;9.792;2024-01-25T11:05:14;141.00;;;105.20;;
51296;SDS011;37380;45.186;9.792;2024-01-25T11:07:47;132.90;;;98.05;;
51296;SDS011;37380;45.186;9.792;2024-01-25T11:12:50;122.30;;;95.22;;
51296;SDS011;37380;45.186;9.792;2024-01-25T11:15:29;111.43;;;82.07;;
51296;SDS011;37380;45.186;9.792;2024-01-25T11:17:58;129.35;;;96.68;;
51296;SDS011;37380;45.186;9.792;2024-01-25T11:20:27;130.38;;;95.32;;
51296;SDS011;37380;45.186;9.792;2024-01-25T11:23:00;129.35;;;94.57;;
51296;SDS011;37380;45.186;9.792;2024-01-25T11:25:33;147.35;;;99.65;;
51296;SDS011;37380;45.186;9.792;2024-01-25T11:28:01;151.80;;;104.72;;
51296;SDS011;37380;45.186;9.792;2024-01-25T11:30:32;177.52;;;128.20;;
51296;SDS011;37380;45.186;9.792;2024-01-25T11:33:00;131.70;;;93.35;;
51296;SDS011;37380;45.186;9.792;2024-01-25T11:35:31;145.57;;;95.55;;
51296;SDS011;37380;45.186;9.792;2024-01-25T11:37:58;150.82;;;111.93;;
51296;SDS011;37380;45.186;9.792;2024-01-25T11:40:26;120.55;;;91.60;;
51296;SDS011;37380;45.186;9.792;2024-01-25T11:42:57;131.43;;;92.05;;
51296;SDS011;37380;45.186;9.792;2024-01-25T11:45:25;130.15;;;90.13;;
51296;SDS011;37380;45.186;9.792;2024-01-25T11:47:52;120.85;;;95.07;;
51296;SDS011;37380;45.186;9.792;2024-01-25T11:50:19;125.40;;;85.35;;
51296;SDS011;37380;45.186;9.792;2024-01-25T11:52:48;128.57;;;92.80;;
51296;SDS011;37380;45.186;9.792;2024-01-25T11:55:17;125.03;;;93.78;;
51296;SDS011;37380;45.186;9.792;2024-01-25T11:57:44;117.05;;;87.18;;
51296;SDS011;37380;45.186;9.792;2024-01-25T12:00:12;140.07;;;102.97;;
51296;SDS011;37380;45.186;9.792;2024-01-25T12:02:41;146.13;;;107.70;;
51296;SDS011;37380;45.186;9.792;2024-01-25T12:05:09;131.50;;;98.13;;
51296;SDS011;37380;45.186;9.792;2024-01-25T12:07:38;136.63;;;101.50;;
51296;SDS011;37380;45.186;9.792;2024-01-25T12:10:07;138.85;;;100.30;;
51296;SDS011;37380;45.186;9.792;2024-01-25T12:12:36;125.47;;;100.15;;
51296;SDS011;37380;45.186;9.792;2024-01-25T12:15:05;128.27;;;95.10;;
51296;SDS011;37380;45.186;9.792;2024-01-25T12:17:34;135.18;;;94.68;;
51296;SDS011;37380;45.186;9.792;2024-01-25T12:20:08;132.95;;;98.20;;
51296;SDS011;37380;45.186;9.792;2024-01-25T12:22:39;146.98;;;101.82;;
51296;SDS011;37380;45.186;9.792;2024-01-25T12:25:07;158.15;;;99.80;;
51296;SDS011;37380;45.186;9.792;2024-01-25T12:27:36;139.25;;;95.18;;
51296;SDS011;37380;45.186;9.792;2024-01-25T12:30:04;129.98;;;100.15;;
51296;SDS011;37380;45.186;9.792;2024-01-25T12:32:35;159.88;;;103.47;;
51296;SDS011;37380;45.186;9.792;2024-01-25T12:35:02;135.30;;;100.53;;
51296;SDS011;37380;45.186;9.792;2024-01-25T12:37:30;138.90;;;100.53;;
51296;SDS011;37380;45.186;9.792;2024-01-25T12:39:58;143.93;;;99.45;;
51296;SDS011;37380;45.186;9.792;2024-01-25T12:42:25;140.32;;;99.75;;
51296;SDS011;37380;45.186;9.792;2024-01-25T12:44:53;126.75;;;96.32;;
51296;SDS011;37380;45.186;9.792;2024-01-25T12:47:24;142.43;;;98.72;;
51296;SDS011;37380;45.186;9.792;2024-01-25T12:49:52;122.50;;;92.60;;
51296;SDS011;37380;45.186;9.792;2024-01-25T12:52:19;139.55;;;99.00;;
51296;SDS011;37380;45.186;9.792;2024-01-25T12:54:46;134.63;;;97.18;;
51296;SDS011;37380;45.186;9.792;2024-01-25T12:57:13;140.57;;;99.68;;
51296;SDS011;37380;45.186;9.792;2024-01-25T12:59:40;131.02;;;96.22;;
51296;SDS011;37380;45.186;9.792;2024-01-25T13:02:08;128.93;;;94.88;;
51296;SDS011;37380;45.186;9.792;2024-01-25T13:04:36;133.15;;;99.57;;
51296;SDS011;37380;45.186;9.792;2024-01-25T13:07:04;139.35;;;102.15;;
51296;SDS011;37380;45.186;9.792;2024-01-25T13:09:32;126.05;;;96.95;;
51296;SDS011;37380;45.186;9.792;2024-01-25T13:12:03;131.73;;;99.43;;
51296;SDS011;37380;45.186;9.792;2024-01-25T13:14:30;127.97;;;97.38;;
51296;SDS011;37380;45.186;9.792;2024-01-25T13:16:57;126.82;;;99.53;;
51296;SDS011;37380;45.186;9.792;2024-01-25T13:19:24;134.48;;;102.57;;
51296;SDS011;37380;45.186;9.792;2024-01-25T13:21:52;126.00;;;97.63;;
51296;SDS011;37380;45.186;9.792;2024-01-25T13:24:19;133.15;;;95.45;;
51296;SDS011;37380;45.186;9.792;2024-01-25T13:26:46;129.18;;;98.15;;
51296;SDS011;37380;45.186;9.792;2024-01-25T13:29:13;124.63;;;98.18;;
51296;SDS011;37380;45.186;9.792;2024-01-25T13:31:40;123.68;;;90.88;;
51296;SDS011;37380;45.186;9.792;2024-01-25T13:34:08;133.35;;;98.15;;
51296;SDS011;37380;45.186;9.792;2024-01-25T13:36:35;125.70;;;98.45;;
51296;SDS011;37380;45.186;9.792;2024-01-25T13:39:03;135.55;;;102.10;;
51296;SDS011;37380;45.186;9.792;2024-01-25T13:41:30;133.10;;;96.78;;
51296;SDS011;37380;45.186;9.792;2024-01-25T13:43:58;133.68;;;97.47;;
51296;SDS011;37380;45.186;9.792;2024-01-25T13:46:25;151.63;;;103.07;;
51296;SDS011;37380;45.186;9.792;2024-01-25T13:48:52;136.73;;;99.95;;
51296;SDS011;37380;45.186;9.792;2024-01-25T13:51:19;132.18;;;99.32;;
51296;SDS011;37380;45.186;9.792;2024-01-25T13:53:47;133.05;;;98.25;;
51296;SDS011;37380;45.186;9.792;2024-01-25T13:56:16;136.05;;;99.22;;
51296;SDS011;37380;45.186;9.792;2024-01-25T13:58:43;144.65;;;108.65;;
51296;SDS011;37380;45.186;9.792;2024-01-25T14:01:10;141.77;;;105.22;;
51296;SDS011;37380;45.186;9.792;2024-01-25T14:03:38;129.55;;;98.03;;
51296;SDS011;37380;45.186;9.792;2024-01-25T14:06:09;136.13;;;103.13;;